sensor_id;sensor_type;location;lat;lon;timestamp;P1;durP1;ratioP1;P2;durP2;ratioP2
55330;SDS011;58851;42.984;20.336;2023-04-15T00:01:18;40.30;;;24.08;;
55330;SDS011;58851;42.984;20.336;2023-04-15T00:03:45;41.67;;;26.27;;
55330;SDS011;58851;42.984;20.336;2023-04-15T00:06:11;44.95;;;25.90;;
55330;SDS011;58851;42.984;20.336;2023-04-15T00:08:38;61.83;;;38.47;;
55330;SDS011;58851;42.984;20.336;2023-04-15T00:11:04;44.28;;;29.23;;
55330;SDS011;58851;42.984;20.336;2023-04-15T00:13:32;30.95;;;22.20;;
55330;SDS011;58851;42.984;20.336;2023-04-15T00:15:59;36.63;;;23.58;;
55330;SDS011;58851;42.984;20.336;2023-04-15T00:18:25;36.47;;;24.13;;
55330;SDS011;58851;42.984;20.336;2023-04-15T00:20:51;33.38;;;18.55;;
55330;SDS011;58851;42.984;20.336;2023-04-15T00:23:17;32.22;;;20.85;;
55330;SDS011;58851;42.984;20.336;2023-04-15T00:25:43;49.38;;;28.83;;
55330;SDS011;58851;42.984;20.336;2023-04-15T00:28:09;41.15;;;27.25;;
55330;SDS011;58851;42.984;20.336;2023-04-15T00:30:35;42.97;;;26.75;;
55330;SDS011;58851;42.984;20.336;2023-04-15T00:33:01;48.47;;;26.17;;
55330;SDS011;58851;42.984;20.336;2023-04-15T00:35:27;51.42;;;32.40;;
55330;SDS011;58851;42.984;20.336;2023-04-15T00:37:53;78.18;;;46.10;;
55330;SDS011;58851;42.984;20.336;2023-04-15T00:40:19;134.02;;;79.55;;
55330;SDS011;58851;42.984;20.336;2023-04-15T00:42:46;102.88;;;60.95;;
55330;SDS011;58851;42.984;20.336;2023-04-15T00:45:12;76.47;;;45.08;;
55330;SDS011;58851;42.984;20.336;2023-04-15T00:47:38;58.92;;;35.28;;
55330;SDS011;58851;42.984;20.336;2023-04-15T00:50:06;54.63;;;33.97;;
55330;SDS011;58851;42.984;20.336;2023-04-15T00:52:32;33.53;;;22.00;;
55330;SDS011;58851;42.984;20.336;2023-04-15T00:54:59;32.90;;;19.58;;
55330;SDS011;58851;42.984;20.336;2023-04-15T00:57:25;38.65;;;23.38;;
55330;SDS011;58851;42.984;20.336;2023-04-15T00:59:52;36.85;;;24.20;;
55330;SDS011;58851;42.984;20.336;2023-04-15T01:02:20;40.60;;;25.88;;
55330;SDS011;58851;42.984;20.336;2023-04-15T01:04:47;46.92;;;28.65;;
55330;SDS011;58851;42.984;20.336;2023-04-15T01:07:13;36.00;;;25.20;;
55330;SDS011;58851;42.984;20.336;2023-04-15T01:09:40;58.15;;;40.78;;
55330;SDS011;58851;42.984;20.336;2023-04-15T01:12:06;61.05;;;40.97;;
55330;SDS011;58851;42.984;20.336;2023-04-15T01:14:34;45.15;;;31.30;;
55330;SDS011;58851;42.984;20.336;2023-04-15T01:17:01;47.10;;;29.50;;
55330;SDS011;58851;42.984;20.336;2023-04-15T01:19:27;49.78;;;30.98;;
55330;SDS011;58851;42.984;20.336;2023-04-15T01:21:53;44.90;;;31.13;;
55330;SDS011;58851;42.984;20.336;2023-04-15T01:24:19;54.30;;;33.78;;
55330;SDS011;58851;42.984;20.336;2023-04-15T01:26:45;48.55;;;30.17;;
55330;SDS011;58851;42.984;20.336;2023-04-15T01:29:11;45.80;;;30.88;;
55330;SDS011;58851;42.984;20.336;2023-04-15T01:31:37;48.58;;;29.40;;
55330;SDS011;58851;42.984;20.336;2023-04-15T01:34:03;45.60;;;29.73;;
55330;SDS011;58851;42.984;20.336;2023-04-15T01:36:29;39.05;;;25.90;;
55330;SDS011;58851;42.984;20.336;2023-04-15T01:38:55;48.03;;;32.05;;
55330;SDS011;58851;42.984;20.336;2023-04-15T01:41:27;55.90;;;34.78;;
55330;SDS011;58851;42.984;20.336;2023-04-15T01:43:53;54.80;;;33.45;;
55330;SDS011;58851;42.984;20.336;2023-04-15T01:46:19;50.30;;;31.65;;
55330;SDS011;58851;42.984;20.336;2023-04-15T01:48:46;48.75;;;31.42;;
55330;SDS011;58851;42.984;20.336;2023-04-15T01:51:12;31.50;;;21.48;;
55330;SDS011;58851;42.984;20.336;2023-04-15T01:53:38;41.25;;;21.35;;
55330;SDS011;58851;42.984;20.336;2023-04-15T01:56:04;54.97;;;36.72;;
55330;SDS011;58851;42.984;20.336;2023-04-15T01:58:31;50.83;;;31.23;;
55330;SDS011;58851;42.984;20.336;2023-04-15T02:00:57;54.67;;;33.22;;
55330;SDS011;58851;42.984;20.336;2023-04-15T02:03:23;54.70;;;38.65;;
55330;SDS011;58851;42.984;20.336;2023-04-15T02:05:49;64.72;;;39.70;;
55330;SDS011;58851;42.984;20.336;2023-04-15T02:08:15;45.45;;;28.55;;
55330;SDS011;58851;42.984;20.336;2023-04-15T02:10:41;48.30;;;30.70;;
55330;SDS011;58851;42.984;20.336;2023-04-15T02:13:07;41.58;;;26.55;;
55330;SDS011;58851;42.984;20.336;2023-04-15T02:15:33;46.13;;;28.10;;
55330;SDS011;58851;42.984;20.336;2023-04-15T02:17:59;63.28;;;39.67;;
55330;SDS011;58851;42.984;20.336;2023-04-15T02:20:26;67.13;;;42.15;;
55330;SDS011;58851;42.984;20.336;2023-04-15T02:22:51;86.97;;;50.35;;
55330;SDS011;58851;42.984;20.336;2023-04-15T02:25:17;56.15;;;33.10;;
55330;SDS011;58851;42.984;20.336;2023-04-15T02:27:44;41.92;;;24.55;;
55330;SDS011;58851;42.984;20.336;2023-04-15T02:30:10;39.63;;;26.80;;
55330;SDS011;58851;42.984;20.336;2023-04-15T02:32:36;27.17;;;17.83;;
55330;SDS011;58851;42.984;20.336;2023-04-15T02:35:03;25.63;;;17.08;;
55330;SDS011;58851;42.984;20.336;2023-04-15T02:37:29;28.50;;;16.88;;
55330;SDS011;58851;42.984;20.336;2023-04-15T02:39:56;26.45;;;16.50;;
55330;SDS011;58851;42.984;20.336;2023-04-15T02:42:21;31.40;;;21.05;;
55330;SDS011;58851;42.984;20.336;2023-04-15T02:44:47;32.40;;;19.75;;
55330;SDS011;58851;42.984;20.336;2023-04-15T02:47:13;37.47;;;21.98;;
55330;SDS011;58851;42.984;20.336;2023-04-15T02:49:40;35.95;;;22.15;;
55330;SDS011;58851;42.984;20.336;2023-04-15T02:52:05;29.15;;;18.25;;
55330;SDS011;58851;42.984;20.336;2023-04-15T02:54:31;27.05;;;16.20;;
55330;SDS011;58851;42.984;20.336;2023-04-15T02:56:58;38.53;;;24.05;;
55330;SDS011;58851;42.984;20.336;2023-04-15T02:59:24;41.33;;;24.00;;
55330;SDS011;58851;42.984;20.336;2023-04-15T03:01:50;46.13;;;25.60;;
55330;SDS011;58851;42.984;20.336;2023-04-15T03:04:15;47.67;;;26.70;;
55330;SDS011;58851;42.984;20.336;2023-04-15T03:06:41;49.30;;;29.80;;
55330;SDS011;58851;42.984;20.336;2023-04-15T03:09:07;49.95;;;28.80;;
55330;SDS011;58851;42.984;20.336;2023-04-15T03:11:33;44.78;;;29.90;;
55330;SDS011;58851;42.984;20.336;2023-04-15T03:14:04;39.00;;;25.83;;
55330;SDS011;58851;42.984;20.336;2023-04-15T03:16:30;38.63;;;24.95;;
55330;SDS011;58851;42.984;20.336;2023-04-15T03:18:56;31.80;;;20.77;;
55330;SDS011;58851;42.984;20.336;2023-04-15T03:21:21;30.08;;;19.13;;
55330;SDS011;58851;42.984;20.336;2023-04-15T03:23:48;32.47;;;16.92;;
55330;SDS011;58851;42.984;20.336;2023-04-15T03:26:26;25.02;;;16.63;;
55330;SDS011;58851;42.984;20.336;2023-04-15T03:28:54;25.17;;;16.20;;
55330;SDS011;58851;42.984;20.336;2023-04-15T03:31:20;22.55;;;16.00;;
55330;SDS011;58851;42.984;20.336;2023-04-15T03:33:47;24.50;;;16.45;;
55330;SDS011;58851;42.984;20.336;2023-04-15T03:36:12;29.33;;;17.52;;
55330;SDS011;58851;42.984;20.336;2023-04-15T03:38:38;36.42;;;21.77;;
55330;SDS011;58851;42.984;20.336;2023-04-15T03:41:04;42.53;;;24.35;;
55330;SDS011;58851;42.984;20.336;2023-04-15T03:43:30;45.92;;;31.15;;
55330;SDS011;58851;42.984;20.336;2023-04-15T03:45:56;51.90;;;29.20;;
55330;SDS011;58851;42.984;20.336;2023-04-15T03:48:21;49.95;;;29.40;;
55330;SDS011;58851;42.984;20.336;2023-04-15T03:50:47;44.40;;;28.17;;
55330;SDS011;58851;42.984;20.336;2023-04-15T03:53:13;40.35;;;27.15;;
55330;SDS011;58851;42.984;20.336;2023-04-15T03:55:39;38.92;;;25.02;;
55330;SDS011;58851;42.984;20.336;2023-04-15T03:58:05;41.92;;;27.45;;
55330;SDS011;58851;42.984;20.336;2023-04-15T04:00:31;40.92;;;27.80;;
55330;SDS011;58851;42.984;20.336;2023-04-15T04:02:57;39.92;;;26.60;;
55330;SDS011;58851;42.984;20.336;2023-04-15T04:05:22;39.95;;;25.92;;
55330;SDS011;58851;42.984;20.336;2023-04-15T04:07:48;33.58;;;21.13;;
55330;SDS011;58851;42.984;20.336;2023-04-15T04:10:14;45.30;;;26.95;;
55330;SDS011;58851;42.984;20.336;2023-04-15T04:12:40;47.28;;;30.30;;
55330;SDS011;58851;42.984;20.336;2023-04-15T04:15:06;35.45;;;22.75;;
55330;SDS011;58851;42.984;20.336;2023-04-15T04:17:32;80.35;;;45.08;;
55330;SDS011;58851;42.984;20.336;2023-04-15T04:19:58;197.77;;;111.72;;
55330;SDS011;58851;42.984;20.336;2023-04-15T04:22:24;189.95;;;110.22;;
55330;SDS011;58851;42.984;20.336;2023-04-15T04:24:50;57.05;;;38.40;;
55330;SDS011;58851;42.984;20.336;2023-04-15T04:27:16;48.90;;;30.33;;
55330;SDS011;58851;42.984;20.336;2023-04-15T04:29:42;42.28;;;28.83;;
55330;SDS011;58851;42.984;20.336;2023-04-15T04:32:08;37.58;;;26.77;;
55330;SDS011;58851;42.984;20.336;2023-04-15T04:34:33;39.42;;;26.63;;
55330;SDS011;58851;42.984;20.336;2023-04-15T04:36:59;34.00;;;21.52;;
55330;SDS011;58851;42.984;20.336;2023-04-15T04:39:25;34.15;;;21.63;;
55330;SDS011;58851;42.984;20.336;2023-04-15T04:41:51;26.00;;;18.63;;
55330;SDS011;58851;42.984;20.336;2023-04-15T04:44:17;22.80;;;17.20;;
55330;SDS011;58851;42.984;20.336;2023-04-15T04:46:42;22.40;;;14.43;;
55330;SDS011;58851;42.984;20.336;2023-04-15T04:49:08;25.52;;;16.52;;
55330;SDS011;58851;42.984;20.336;2023-04-15T04:51:34;22.63;;;14.60;;
55330;SDS011;58851;42.984;20.336;2023-04-15T04:54:00;24.25;;;15.40;;
55330;SDS011;58851;42.984;20.336;2023-04-15T04:56:26;247.93;;;97.68;;
55330;SDS011;58851;42.984;20.336;2023-04-15T04:58:52;241.43;;;100.72;;
55330;SDS011;58851;42.984;20.336;2023-04-15T05:01:18;62.10;;;34.40;;
55330;SDS011;58851;42.984;20.336;2023-04-15T05:03:44;36.88;;;24.10;;
55330;SDS011;58851;42.984;20.336;2023-04-15T05:06:10;38.08;;;25.10;;
55330;SDS011;58851;42.984;20.336;2023-04-15T05:08:36;43.97;;;30.40;;
55330;SDS011;58851;42.984;20.336;2023-04-15T05:11:02;35.38;;;24.48;;
55330;SDS011;58851;42.984;20.336;2023-04-15T05:13:28;61.03;;;39.97;;
55330;SDS011;58851;42.984;20.336;2023-04-15T05:15:54;57.35;;;36.92;;
55330;SDS011;58851;42.984;20.336;2023-04-15T05:18:20;41.83;;;28.20;;
55330;SDS011;58851;42.984;20.336;2023-04-15T05:20:46;39.58;;;25.05;;
55330;SDS011;58851;42.984;20.336;2023-04-15T05:23:14;50.85;;;37.65;;
55330;SDS011;58851;42.984;20.336;2023-04-15T05:25:40;50.00;;;34.03;;
55330;SDS011;58851;42.984;20.336;2023-04-15T05:28:06;36.95;;;24.33;;
55330;SDS011;58851;42.984;20.336;2023-04-15T05:30:32;34.40;;;23.23;;
55330;SDS011;58851;42.984;20.336;2023-04-15T05:32:58;34.83;;;24.63;;
55330;SDS011;58851;42.984;20.336;2023-04-15T05:35:23;36.78;;;24.63;;
55330;SDS011;58851;42.984;20.336;2023-04-15T05:37:49;36.42;;;22.60;;
55330;SDS011;58851;42.984;20.336;2023-04-15T05:40:15;28.90;;;20.98;;
55330;SDS011;58851;42.984;20.336;2023-04-15T05:42:41;28.92;;;21.88;;
55330;SDS011;58851;42.984;20.336;2023-04-15T05:45:07;56.53;;;32.65;;
55330;SDS011;58851;42.984;20.336;2023-04-15T05:47:36;40.80;;;29.25;;
55330;SDS011;58851;42.984;20.336;2023-04-15T05:50:02;46.20;;;28.50;;
55330;SDS011;58851;42.984;20.336;2023-04-15T05:52:30;35.60;;;21.67;;
55330;SDS011;58851;42.984;20.336;2023-04-15T05:54:56;39.92;;;26.08;;
55330;SDS011;58851;42.984;20.336;2023-04-15T05:57:21;57.20;;;30.60;;
55330;SDS011;58851;42.984;20.336;2023-04-15T05:59:47;54.10;;;31.40;;
55330;SDS011;58851;42.984;20.336;2023-04-15T06:02:15;65.30;;;38.42;;
55330;SDS011;58851;42.984;20.336;2023-04-15T06:04:41;56.70;;;33.97;;
55330;SDS011;58851;42.984;20.336;2023-04-15T06:07:07;67.35;;;40.95;;
55330;SDS011;58851;42.984;20.336;2023-04-15T06:09:33;63.55;;;35.90;;
55330;SDS011;58851;42.984;20.336;2023-04-15T06:12:00;46.35;;;31.55;;
55330;SDS011;58851;42.984;20.336;2023-04-15T06:14:27;35.40;;;21.60;;
55330;SDS011;58851;42.984;20.336;2023-04-15T06:16:52;30.83;;;19.83;;
55330;SDS011;58851;42.984;20.336;2023-04-15T06:19:18;31.70;;;19.48;;
55330;SDS011;58851;42.984;20.336;2023-04-15T06:21:44;26.92;;;17.38;;
55330;SDS011;58851;42.984;20.336;2023-04-15T06:24:10;10.73;;;7.45;;
55330;SDS011;58851;42.984;20.336;2023-04-15T06:26:36;11.48;;;6.57;;
55330;SDS011;58851;42.984;20.336;2023-04-15T06:29:02;9.20;;;6.40;;
55330;SDS011;58851;42.984;20.336;2023-04-15T06:31:28;11.48;;;6.85;;
55330;SDS011;58851;42.984;20.336;2023-04-15T06:33:54;10.32;;;6.90;;
55330;SDS011;58851;42.984;20.336;2023-04-15T06:36:20;12.85;;;8.25;;
55330;SDS011;58851;42.984;20.336;2023-04-15T06:38:46;11.27;;;8.35;;
55330;SDS011;58851;42.984;20.336;2023-04-15T06:41:12;9.25;;;6.97;;
55330;SDS011;58851;42.984;20.336;2023-04-15T06:43:38;8.73;;;5.97;;
55330;SDS011;58851;42.984;20.336;2023-04-15T06:46:04;10.45;;;6.45;;
55330;SDS011;58851;42.984;20.336;2023-04-15T06:48:30;12.57;;;6.22;;
55330;SDS011;58851;42.984;20.336;2023-04-15T06:50:56;10.15;;;6.93;;
55330;SDS011;58851;42.984;20.336;2023-04-15T06:53:24;14.30;;;8.80;;
55330;SDS011;58851;42.984;20.336;2023-04-15T06:55:52;14.50;;;7.57;;
55330;SDS011;58851;42.984;20.336;2023-04-15T06:58:17;9.57;;;6.18;;
55330;SDS011;58851;42.984;20.336;2023-04-15T07:00:43;7.40;;;4.95;;
55330;SDS011;58851;42.984;20.336;2023-04-15T07:03:10;9.75;;;6.35;;
55330;SDS011;58851;42.984;20.336;2023-04-15T07:05:37;12.82;;;6.45;;
55330;SDS011;58851;42.984;20.336;2023-04-15T07:08:03;14.38;;;7.40;;
55330;SDS011;58851;42.984;20.336;2023-04-15T07:10:29;11.95;;;7.13;;
55330;SDS011;58851;42.984;20.336;2023-04-15T07:12:55;14.27;;;8.00;;
55330;SDS011;58851;42.984;20.336;2023-04-15T07:15:21;14.25;;;6.82;;
55330;SDS011;58851;42.984;20.336;2023-04-15T07:17:47;13.27;;;7.38;;
55330;SDS011;58851;42.984;20.336;2023-04-15T07:20:13;12.50;;;7.78;;
55330;SDS011;58851;42.984;20.336;2023-04-15T07:22:39;10.52;;;6.60;;
55330;SDS011;58851;42.984;20.336;2023-04-15T07:25:05;9.30;;;6.85;;
55330;SDS011;58851;42.984;20.336;2023-04-15T07:27:32;10.25;;;7.30;;
55330;SDS011;58851;42.984;20.336;2023-04-15T07:29:58;9.30;;;5.63;;
55330;SDS011;58851;42.984;20.336;2023-04-15T07:32:23;14.93;;;6.00;;
55330;SDS011;58851;42.984;20.336;2023-04-15T07:34:50;9.23;;;4.30;;
55330;SDS011;58851;42.984;20.336;2023-04-15T07:37:15;7.57;;;5.03;;
55330;SDS011;58851;42.984;20.336;2023-04-15T07:39:41;7.47;;;4.90;;
55330;SDS011;58851;42.984;20.336;2023-04-15T07:42:07;8.75;;;5.28;;
55330;SDS011;58851;42.984;20.336;2023-04-15T07:44:34;11.48;;;7.43;;
55330;SDS011;58851;42.984;20.336;2023-04-15T07:47:01;12.98;;;8.40;;
55330;SDS011;58851;42.984;20.336;2023-04-15T07:49:26;14.60;;;8.00;;
55330;SDS011;58851;42.984;20.336;2023-04-15T07:51:52;13.73;;;9.02;;
55330;SDS011;58851;42.984;20.336;2023-04-15T07:54:18;12.65;;;8.38;;
55330;SDS011;58851;42.984;20.336;2023-04-15T07:56:44;13.68;;;8.98;;
55330;SDS011;58851;42.984;20.336;2023-04-15T07:59:10;10.70;;;6.13;;
55330;SDS011;58851;42.984;20.336;2023-04-15T08:01:37;7.80;;;4.00;;
55330;SDS011;58851;42.984;20.336;2023-04-15T08:04:03;8.68;;;5.47;;
55330;SDS011;58851;42.984;20.336;2023-04-15T08:06:28;14.82;;;9.95;;
55330;SDS011;58851;42.984;20.336;2023-04-15T08:08:54;13.05;;;8.20;;
55330;SDS011;58851;42.984;20.336;2023-04-15T08:11:20;9.73;;;5.40;;
55330;SDS011;58851;42.984;20.336;2023-04-15T08:13:48;12.32;;;8.43;;
55330;SDS011;58851;42.984;20.336;2023-04-15T08:16:18;18.13;;;10.95;;
55330;SDS011;58851;42.984;20.336;2023-04-15T08:18:48;10.80;;;7.60;;
55330;SDS011;58851;42.984;20.336;2023-04-15T08:21:15;9.38;;;5.82;;
55330;SDS011;58851;42.984;20.336;2023-04-15T08:23:43;10.32;;;5.45;;
55330;SDS011;58851;42.984;20.336;2023-04-15T08:26:11;13.18;;;6.60;;
55330;SDS011;58851;42.984;20.336;2023-04-15T08:28:37;9.23;;;5.80;;
55330;SDS011;58851;42.984;20.336;2023-04-15T08:31:04;12.60;;;5.68;;
55330;SDS011;58851;42.984;20.336;2023-04-15T08:33:30;6.35;;;4.35;;
55330;SDS011;58851;42.984;20.336;2023-04-15T08:35:56;9.20;;;5.70;;
55330;SDS011;58851;42.984;20.336;2023-04-15T08:38:22;10.23;;;5.85;;
55330;SDS011;58851;42.984;20.336;2023-04-15T08:40:48;9.00;;;6.20;;
55330;SDS011;58851;42.984;20.336;2023-04-15T08:43:20;10.77;;;6.30;;
55330;SDS011;58851;42.984;20.336;2023-04-15T08:45:50;7.85;;;5.85;;
55330;SDS011;58851;42.984;20.336;2023-04-15T08:48:17;5.35;;;3.80;;
55330;SDS011;58851;42.984;20.336;2023-04-15T08:50:44;6.22;;;4.50;;
55330;SDS011;58851;42.984;20.336;2023-04-15T08:53:11;6.65;;;3.35;;
55330;SDS011;58851;42.984;20.336;2023-04-15T08:55:38;4.75;;;3.03;;
55330;SDS011;58851;42.984;20.336;2023-04-15T08:58:10;5.50;;;3.88;;
55330;SDS011;58851;42.984;20.336;2023-04-15T09:00:37;7.75;;;4.28;;
55330;SDS011;58851;42.984;20.336;2023-04-15T09:03:04;4.53;;;2.15;;
55330;SDS011;58851;42.984;20.336;2023-04-15T09:05:36;5.88;;;3.30;;
55330;SDS011;58851;42.984;20.336;2023-04-15T09:08:03;5.45;;;3.20;;
55330;SDS011;58851;42.984;20.336;2023-04-15T09:10:30;4.22;;;2.20;;
55330;SDS011;58851;42.984;20.336;2023-04-15T09:12:57;5.38;;;2.25;;
55330;SDS011;58851;42.984;20.336;2023-04-15T09:15:23;11.18;;;5.88;;
55330;SDS011;58851;42.984;20.336;2023-04-15T09:17:50;17.13;;;9.70;;
55330;SDS011;58851;42.984;20.336;2023-04-15T09:20:16;13.57;;;8.20;;
55330;SDS011;58851;42.984;20.336;2023-04-15T09:22:45;14.32;;;10.00;;
55330;SDS011;58851;42.984;20.336;2023-04-15T09:27:50;4.53;;;3.08;;
55330;SDS011;58851;42.984;20.336;2023-04-15T09:30:17;8.15;;;4.57;;
55330;SDS011;58851;42.984;20.336;2023-04-15T09:33:02;11.02;;;6.32;;
55330;SDS011;58851;42.984;20.336;2023-04-15T09:35:32;5.40;;;3.13;;
55330;SDS011;58851;42.984;20.336;2023-04-15T09:38:04;7.78;;;4.50;;
55330;SDS011;58851;42.984;20.336;2023-04-15T09:40:40;6.50;;;3.90;;
55330;SDS011;58851;42.984;20.336;2023-04-15T09:43:07;12.88;;;7.57;;
55330;SDS011;58851;42.984;20.336;2023-04-15T09:45:34;82.82;;;56.97;;
55330;SDS011;58851;42.984;20.336;2023-04-15T09:48:17;12.07;;;9.45;;
55330;SDS011;58851;42.984;20.336;2023-04-15T09:50:51;6.57;;;4.18;;
55330;SDS011;58851;42.984;20.336;2023-04-15T09:53:21;5.20;;;3.50;;
55330;SDS011;58851;42.984;20.336;2023-04-15T09:55:49;7.60;;;6.05;;
55330;SDS011;58851;42.984;20.336;2023-04-15T09:58:20;6.25;;;3.80;;
55330;SDS011;58851;42.984;20.336;2023-04-15T10:00:47;4.22;;;2.40;;
55330;SDS011;58851;42.984;20.336;2023-04-15T10:03:21;59.28;;;53.25;;
55330;SDS011;58851;42.984;20.336;2023-04-15T10:05:49;10.23;;;7.13;;
55330;SDS011;58851;42.984;20.336;2023-04-15T10:08:17;11.52;;;10.35;;
55330;SDS011;58851;42.984;20.336;2023-04-15T10:10:45;5.18;;;3.58;;
55330;SDS011;58851;42.984;20.336;2023-04-15T10:13:19;4.90;;;2.28;;
55330;SDS011;58851;42.984;20.336;2023-04-15T10:18:22;4.10;;;2.50;;
55330;SDS011;58851;42.984;20.336;2023-04-15T10:20:51;2.30;;;1.50;;
55330;SDS011;58851;42.984;20.336;2023-04-15T10:23:18;3.50;;;1.60;;
55330;SDS011;58851;42.984;20.336;2023-04-15T10:25:45;3.10;;;2.15;;
55330;SDS011;58851;42.984;20.336;2023-04-15T10:28:12;2.70;;;1.60;;
55330;SDS011;58851;42.984;20.336;2023-04-15T10:30:40;3.88;;;2.10;;
55330;SDS011;58851;42.984;20.336;2023-04-15T10:33:07;7.30;;;4.00;;
55330;SDS011;58851;42.984;20.336;2023-04-15T10:35:35;8.05;;;4.53;;
55330;SDS011;58851;42.984;20.336;2023-04-15T10:38:01;7.18;;;2.70;;
55330;SDS011;58851;42.984;20.336;2023-04-15T10:40:47;5.35;;;2.78;;
55330;SDS011;58851;42.984;20.336;2023-04-15T10:43:23;4.10;;;2.72;;
55330;SDS011;58851;42.984;20.336;2023-04-15T10:45:52;3.55;;;2.42;;
55330;SDS011;58851;42.984;20.336;2023-04-15T10:48:21;3.38;;;1.90;;
55330;SDS011;58851;42.984;20.336;2023-04-15T10:50:57;7.57;;;3.83;;
55330;SDS011;58851;42.984;20.336;2023-04-15T10:53:30;5.30;;;3.17;;
55330;SDS011;58851;42.984;20.336;2023-04-15T10:55:57;4.78;;;2.72;;
55330;SDS011;58851;42.984;20.336;2023-04-15T10:58:23;4.93;;;3.17;;
55330;SDS011;58851;42.984;20.336;2023-04-15T11:00:50;4.07;;;2.20;;
55330;SDS011;58851;42.984;20.336;2023-04-15T11:03:33;3.45;;;2.42;;
55330;SDS011;58851;42.984;20.336;2023-04-15T11:14:35;6.55;;;4.88;;
55330;SDS011;58851;42.984;20.336;2023-04-15T11:17:05;6.60;;;5.30;;
55330;SDS011;58851;42.984;20.336;2023-04-15T11:19:37;7.85;;;4.60;;
55330;SDS011;58851;42.984;20.336;2023-04-15T11:22:07;5.47;;;3.00;;
55330;SDS011;58851;42.984;20.336;2023-04-15T11:24:35;4.63;;;2.72;;
55330;SDS011;58851;42.984;20.336;2023-04-15T11:27:01;4.13;;;2.10;;
55330;SDS011;58851;42.984;20.336;2023-04-15T11:29:33;4.28;;;3.08;;
55330;SDS011;58851;42.984;20.336;2023-04-15T11:32:05;4.18;;;2.42;;
55330;SDS011;58851;42.984;20.336;2023-04-15T11:34:34;4.95;;;2.60;;
55330;SDS011;58851;42.984;20.336;2023-04-15T11:37:04;8.45;;;4.00;;
55330;SDS011;58851;42.984;20.336;2023-04-15T11:39:31;3.60;;;2.30;;
55330;SDS011;58851;42.984;20.336;2023-04-15T11:41:57;3.40;;;1.92;;
55330;SDS011;58851;42.984;20.336;2023-04-15T11:44:23;4.60;;;2.75;;
55330;SDS011;58851;42.984;20.336;2023-04-15T11:46:49;5.63;;;2.97;;
55330;SDS011;58851;42.984;20.336;2023-04-15T11:49:28;7.78;;;3.17;;
55330;SDS011;58851;42.984;20.336;2023-04-15T11:51:55;7.47;;;3.88;;
55330;SDS011;58851;42.984;20.336;2023-04-15T11:54:21;3.72;;;2.00;;
55330;SDS011;58851;42.984;20.336;2023-04-15T11:56:50;4.50;;;2.90;;
55330;SDS011;58851;42.984;20.336;2023-04-15T11:59:17;5.40;;;2.60;;
55330;SDS011;58851;42.984;20.336;2023-04-15T12:01:43;4.40;;;1.92;;
55330;SDS011;58851;42.984;20.336;2023-04-15T12:04:11;3.78;;;2.25;;
55330;SDS011;58851;42.984;20.336;2023-04-15T12:06:43;4.80;;;2.88;;
55330;SDS011;58851;42.984;20.336;2023-04-15T12:09:10;9.38;;;5.65;;
55330;SDS011;58851;42.984;20.336;2023-04-15T12:11:44;3.97;;;2.08;;
55330;SDS011;58851;42.984;20.336;2023-04-15T12:14:21;5.18;;;3.08;;
55330;SDS011;58851;42.984;20.336;2023-04-15T12:16:52;7.47;;;4.13;;
55330;SDS011;58851;42.984;20.336;2023-04-15T12:19:24;5.13;;;1.80;;
55330;SDS011;58851;42.984;20.336;2023-04-15T12:22:11;4.35;;;2.47;;
55330;SDS011;58851;42.984;20.336;2023-04-15T12:24:38;2.60;;;1.60;;
55330;SDS011;58851;42.984;20.336;2023-04-15T12:27:07;4.50;;;2.53;;
55330;SDS011;58851;42.984;20.336;2023-04-15T12:29:35;6.50;;;2.50;;
55330;SDS011;58851;42.984;20.336;2023-04-15T12:32:06;8.55;;;4.47;;
55330;SDS011;58851;42.984;20.336;2023-04-15T12:34:38;5.57;;;2.70;;
55330;SDS011;58851;42.984;20.336;2023-04-15T12:37:13;6.32;;;2.70;;
55330;SDS011;58851;42.984;20.336;2023-04-15T12:39:41;3.22;;;2.00;;
55330;SDS011;58851;42.984;20.336;2023-04-15T12:42:07;4.35;;;2.28;;
55330;SDS011;58851;42.984;20.336;2023-04-15T12:44:34;2.70;;;1.73;;
55330;SDS011;58851;42.984;20.336;2023-04-15T12:47:01;3.45;;;1.92;;
55330;SDS011;58851;42.984;20.336;2023-04-15T12:49:27;3.28;;;1.58;;
55330;SDS011;58851;42.984;20.336;2023-04-15T12:51:56;4.90;;;2.25;;
55330;SDS011;58851;42.984;20.336;2023-04-15T12:54:24;6.05;;;3.88;;
55330;SDS011;58851;42.984;20.336;2023-04-15T12:56:51;3.70;;;1.58;;
55330;SDS011;58851;42.984;20.336;2023-04-15T12:59:18;6.60;;;2.65;;
55330;SDS011;58851;42.984;20.336;2023-04-15T13:01:45;3.35;;;1.90;;
55330;SDS011;58851;42.984;20.336;2023-04-15T13:04:13;6.32;;;2.28;;
55330;SDS011;58851;42.984;20.336;2023-04-15T13:06:39;6.45;;;3.83;;
55330;SDS011;58851;42.984;20.336;2023-04-15T13:09:05;3.78;;;2.25;;
55330;SDS011;58851;42.984;20.336;2023-04-15T13:11:32;5.75;;;2.53;;
55330;SDS011;58851;42.984;20.336;2023-04-15T13:14:02;9.88;;;5.32;;
55330;SDS011;58851;42.984;20.336;2023-04-15T13:16:29;7.88;;;5.28;;
55330;SDS011;58851;42.984;20.336;2023-04-15T13:18:56;7.15;;;5.53;;
55330;SDS011;58851;42.984;20.336;2023-04-15T13:21:23;6.30;;;4.15;;
55330;SDS011;58851;42.984;20.336;2023-04-15T13:23:48;4.15;;;2.15;;
55330;SDS011;58851;42.984;20.336;2023-04-15T13:26:17;6.20;;;2.75;;
55330;SDS011;58851;42.984;20.336;2023-04-15T13:28:43;4.80;;;3.08;;
55330;SDS011;58851;42.984;20.336;2023-04-15T13:31:10;9.82;;;4.03;;
55330;SDS011;58851;42.984;20.336;2023-04-15T13:33:35;9.05;;;3.75;;
55330;SDS011;58851;42.984;20.336;2023-04-15T13:36:01;4.20;;;2.22;;
55330;SDS011;58851;42.984;20.336;2023-04-15T13:38:27;7.57;;;4.68;;
55330;SDS011;58851;42.984;20.336;2023-04-15T13:40:53;4.50;;;3.00;;
55330;SDS011;58851;42.984;20.336;2023-04-15T13:43:19;4.47;;;2.70;;
55330;SDS011;58851;42.984;20.336;2023-04-15T13:45:45;6.63;;;2.40;;
55330;SDS011;58851;42.984;20.336;2023-04-15T13:48:12;4.53;;;2.83;;
55330;SDS011;58851;42.984;20.336;2023-04-15T13:50:38;8.43;;;3.40;;
55330;SDS011;58851;42.984;20.336;2023-04-15T13:53:05;2.72;;;1.40;;
55330;SDS011;58851;42.984;20.336;2023-04-15T13:55:31;5.72;;;2.15;;
55330;SDS011;58851;42.984;20.336;2023-04-15T13:57:59;4.07;;;2.05;;
55330;SDS011;58851;42.984;20.336;2023-04-15T14:00:25;4.85;;;3.13;;
55330;SDS011;58851;42.984;20.336;2023-04-15T14:02:50;4.05;;;2.10;;
55330;SDS011;58851;42.984;20.336;2023-04-15T14:05:16;7.97;;;2.67;;
55330;SDS011;58851;42.984;20.336;2023-04-15T14:07:42;9.13;;;5.05;;
55330;SDS011;58851;42.984;20.336;2023-04-15T14:10:08;25.58;;;14.80;;
55330;SDS011;58851;42.984;20.336;2023-04-15T14:12:35;17.95;;;11.40;;
55330;SDS011;58851;42.984;20.336;2023-04-15T14:15:01;8.48;;;4.60;;
55330;SDS011;58851;42.984;20.336;2023-04-15T14:17:27;4.28;;;2.40;;
55330;SDS011;58851;42.984;20.336;2023-04-15T14:19:53;10.82;;;6.55;;
55330;SDS011;58851;42.984;20.336;2023-04-15T14:22:19;11.38;;;3.78;;
55330;SDS011;58851;42.984;20.336;2023-04-15T14:24:44;15.45;;;10.25;;
55330;SDS011;58851;42.984;20.336;2023-04-15T14:27:12;5.85;;;3.53;;
55330;SDS011;58851;42.984;20.336;2023-04-15T14:29:38;3.40;;;2.08;;
55330;SDS011;58851;42.984;20.336;2023-04-15T14:32:04;7.30;;;3.65;;
55330;SDS011;58851;42.984;20.336;2023-04-15T14:34:31;12.05;;;6.32;;